Time;durP1;ratioP1;P1;durP2;ratioP2;P2;SDS_P1;SDS_P2;PMS_P1;PMS_P2;Temp;Humidity;BMP_temperature;BMP_pressure;BME280_temperature;BME280_humidity;BME280_pressure;Samples;Min_cycle;Max_cycle;Signal;HPM_P1;HPM_P2
2023/03/25 00:01:20;;;;;;;14.37;8.13;;;5.20;99.90;4.30;98914;;;;593169;238;25087;-78
2023/03/25 00:03:50;;;;;;;12.83;8.50;;;5.20;99.90;4.30;98916;;;;590885;238;24044;-76
2023/03/25 00:06:15;;;;;;;17.00;10.37;;;5.20;99.90;4.30;98914;;;;593415;238;24047;-77
2023/03/25 00:08:42;;;;;;;17.77;10.40;;;5.10;99.90;4.30;98907;;;;593505;238;24044;-78
2023/03/25 00:11:10;;;;;;;18.27;9.73;;;5.10;99.90;4.30;98906;;;;593616;238;24054;-79
2023/03/25 00:13:39;;;;;;;15.00;8.93;;;5.20;99.90;4.30;98898;;;;593388;238;24091;-78
2023/03/25 00:16:08;;;;;;;18.67;9.13;;;5.20;99.90;4.30;98897;;;;586884;239;24150;-79
2023/03/25 00:18:36;;;;;;;16.80;7.82;;;5.10;99.90;4.30;98892;;;;591208;239;34750;-80
2023/03/25 00:21:03;;;;;;;9.90;5.33;;;5.20;99.90;4.30;98895;;;;587126;241;24019;-80
2023/03/25 00:23:31;;;;;;;11.13;5.90;;;5.20;99.90;4.40;98885;;;;583933;241;24047;-78
2023/03/25 00:25:59;;;;;;;11.23;4.33;;;5.20;99.90;4.40;98882;;;;586615;240;24044;-79
2023/03/25 00:28:32;;;;;;;13.50;4.60;;;5.30;99.90;4.40;98877;;;;587355;240;24044;-79
2023/03/25 00:31:00;;;;;;;9.30;5.43;;;5.30;99.90;4.40;98882;;;;587157;240;24074;-79
2023/03/25 00:33:27;;;;;;;6.20;4.50;;;5.30;99.90;4.50;98880;;;;586296;240;24087;-79
2023/03/25 00:35:59;;;;;;;7.07;4.57;;;5.30;99.90;4.50;98884;;;;586519;241;24061;-78
2023/03/25 00:38:23;;;;;;;5.63;4.77;;;5.30;99.90;4.50;98891;;;;586328;241;24050;-78
2023/03/25 00:40:51;;;;;;;7.43;4.90;;;5.40;99.90;4.50;98882;;;;586961;241;24071;-79
2023/03/25 00:43:19;;;;;;;6.97;4.93;;;5.40;99.90;4.50;98875;;;;586902;241;24071;-79
2023/03/25 00:45:47;;;;;;;5.90;4.37;;;5.40;99.90;4.50;98876;;;;586654;241;24099;-78
2023/03/25 00:48:15;;;;;;;6.83;4.93;;;5.40;99.90;4.50;98871;;;;586671;241;24105;-80
2023/03/25 00:50:43;;;;;;;9.00;4.80;;;5.40;99.90;4.50;98864;;;;586255;241;25160;-78
2023/03/25 00:53:11;;;;;;;9.43;4.07;;;5.40;99.90;4.50;98865;;;;586140;241;24046;-80
2023/03/25 00:55:40;;;;;;;6.27;4.30;;;5.30;99.90;4.40;98850;;;;586257;241;24096;-80
2023/03/25 00:58:07;;;;;;;10.17;4.33;;;5.30;99.90;4.40;98851;;;;582994;242;24143;-79
2023/03/25 01:00:35;;;;;;;7.67;4.03;;;5.30;99.90;4.40;98847;;;;580409;243;24036;-79
2023/03/25 01:03:06;;;;;;;4.67;3.80;;;5.30;99.90;4.40;98849;;;;580087;243;24002;-79
2023/03/25 01:05:32;;;;;;;8.23;4.60;;;5.20;99.90;4.40;98846;;;;579843;243;24020;-79
2023/03/25 01:08:00;;;;;;;8.40;4.27;;;5.20;99.90;4.40;98841;;;;579989;243;24014;-78
2023/03/25 01:10:27;;;;;;;10.07;4.57;;;5.30;99.90;4.40;98847;;;;579919;243;24049;-79
2023/03/25 01:12:55;;;;;;;5.17;4.17;;;5.30;99.90;4.40;98844;;;;580060;243;24058;-78
2023/03/25 01:15:23;;;;;;;4.37;3.60;;;5.30;99.90;4.40;98838;;;;580002;243;24007;-80
2023/03/25 01:17:52;;;;;;;4.70;3.60;;;5.30;99.90;4.40;98830;;;;579935;240;24038;-79
2023/03/25 01:20:20;;;;;;;5.93;3.37;;;5.30;99.90;4.40;98825;;;;580119;243;24013;-79
2023/03/25 01:22:48;;;;;;;6.90;4.50;;;5.20;99.90;4.30;98820;;;;580184;239;24029;-79
2023/03/25 01:25:16;;;;;;;4.10;3.70;;;5.20;99.90;4.30;98825;;;;580002;243;24081;-79
2023/03/25 01:27:44;;;;;;;5.87;3.47;;;5.20;99.90;4.30;98827;;;;580061;243;24029;-81
2023/03/25 01:30:13;;;;;;;9.33;3.80;;;5.20;99.90;4.30;98827;;;;580096;243;24061;-80
2023/03/25 01:32:40;;;;;;;4.17;3.63;;;5.20;99.90;4.40;98826;;;;567939;248;24083;-78
2023/03/25 01:35:09;;;;;;;5.40;3.63;;;5.20;99.90;4.40;98825;;;;578847;244;24096;-79
2023/03/25 01:37:37;;;;;;;7.82;5.50;;;5.30;99.90;4.40;98827;;;;563693;248;35125;-80
2023/03/25 01:40:09;;;;;;;9.47;4.33;;;5.30;99.90;4.40;98827;;;;579982;244;24053;-79
2023/03/25 01:42:33;;;;;;;3.37;3.00;;;5.30;99.90;4.50;98832;;;;568253;245;24103;-79
2023/03/25 01:45:13;;;;;;;6.77;4.00;;;5.30;99.90;4.50;98840;;;;578910;244;24017;-80
2023/03/25 01:47:41;;;;;;;7.13;3.87;;;5.30;99.90;4.50;98850;;;;568323;248;24126;-78
2023/03/25 01:50:13;;;;;;;4.60;3.77;;;5.30;99.90;4.50;98862;;;;578805;244;24075;-80
2023/03/25 01:52:38;;;;;;;5.30;4.07;;;5.20;99.90;4.50;98862;;;;568101;248;24097;-80
2023/03/25 01:55:10;;;;;;;4.73;4.20;;;5.30;99.90;4.40;98856;;;;578934;244;24143;-80
2023/03/25 01:57:36;;;;;;;6.37;3.50;;;5.30;99.90;4.40;98846;;;;567559;247;24072;-81
2023/03/25 02:00:08;;;;;;;6.20;3.97;;;5.30;99.90;4.40;98840;;;;578151;244;24058;-80
2023/03/25 02:02:35;;;;;;;6.00;4.10;;;5.30;99.90;4.40;98837;;;;576260;242;24082;-79
2023/03/25 02:04:59;;;;;;;6.07;4.13;;;5.30;99.90;4.30;98842;;;;578691;244;24079;-81
2023/03/25 02:07:31;;;;;;;4.90;3.73;;;5.20;99.90;4.40;98848;;;;566763;246;24083;-79
2023/03/25 02:10:01;;;;;;;6.67;3.37;;;5.20;99.90;4.40;98857;;;;576854;243;24065;-79
2023/03/25 02:12:31;;;;;;;7.13;3.57;;;5.20;99.90;4.40;98848;;;;567828;248;24068;-81
2023/03/25 02:14:59;;;;;;;8.57;3.47;;;5.20;99.90;4.40;98853;;;;578111;242;24082;-81
2023/03/25 02:17:36;;;;;;;4.20;3.30;;;5.30;99.90;4.40;98846;;;;566412;248;24078;-80
2023/03/25 02:20:38;;;;;;;5.70;3.23;;;5.30;99.90;4.40;98850;;;;577994;242;24015;-77
2023/03/25 02:23:20;;;;;;;4.87;3.70;;;5.30;99.90;4.40;98853;;;;576303;246;24130;-79
2023/03/25 02:26:04;;;;;;;6.30;3.53;;;5.30;99.90;4.40;98846;;;;578119;244;24012;-79
2023/03/25 02:28:50;;;;;;;7.83;4.47;;;5.30;99.90;4.40;98847;;;;568117;248;24103;-79
2023/03/25 02:31:47;;;;;;;5.87;3.83;;;5.30;99.90;4.40;98834;;;;567451;248;24090;-79
2023/03/25 02:34:19;;;;;;;7.27;3.60;;;5.30;99.90;4.40;98841;;;;567637;248;24116;-79
2023/03/25 02:36:56;;;;;;;4.37;3.93;;;5.30;99.90;4.50;98831;;;;577912;244;24030;-79
2023/03/25 02:39:53;;;;;;;5.40;4.20;;;5.30;99.90;4.50;98830;;;;567417;247;24105;-79
2023/03/25 02:42:52;;;;;;;5.50;3.77;;;5.40;99.90;4.60;98828;;;;567761;245;24064;-80
2023/03/25 02:45:28;;;;;;;7.60;3.83;;;5.40;99.90;4.60;98820;;;;578669;244;24072;-79
2023/03/25 02:48:05;;;;;;;4.53;3.60;;;5.40;99.90;4.60;98808;;;;567723;247;24063;-79
2023/03/25 02:50:33;;;;;;;7.03;4.20;;;5.50;99.90;4.70;98809;;;;579919;244;24056;-79
2023/03/25 02:53:01;;;;;;;7.23;5.40;;;5.50;99.90;4.70;98807;;;;562762;248;35161;-79
2023/03/25 02:55:32;;;;;;;12.35;6.95;;;5.60;99.90;4.80;98804;;;;574046;242;34849;-79
2023/03/25 02:58:02;;;;;;;11.73;7.60;;;5.60;99.90;4.80;98808;;;;563676;248;35197;-80
2023/03/25 03:00:27;;;;;;;9.20;4.63;;;5.70;99.90;4.90;98803;;;;578859;244;24060;-79
2023/03/25 03:03:01;;;;;;;6.10;4.23;;;5.70;99.90;4.90;98804;;;;568161;247;24163;-81
2023/03/25 03:05:25;;;;;;;6.33;3.40;;;5.70;99.90;4.90;98806;;;;567964;247;24132;-81
2023/03/25 03:08:18;;;;;;;6.30;3.47;;;5.70;99.90;4.90;98787;;;;576689;244;24067;-82
2023/03/25 03:10:51;;;;;;;5.73;3.50;;;5.70;99.90;4.90;98791;;;;567987;245;24067;-81
2023/03/25 03:13:56;;;;;;;4.63;3.50;;;5.70;99.90;4.90;98795;;;;579034;244;24076;-81
2023/03/25 03:16:47;;;;;;;8.40;4.33;;;5.70;99.90;4.80;98796;;;;568230;248;24124;-81
2023/03/25 03:19:45;;;;;;;8.40;4.20;;;5.70;99.90;4.80;98802;;;;578016;244;24065;-79
2023/03/25 03:22:20;;;;;;;5.23;4.63;;;5.60;99.90;4.80;98805;;;;567994;248;24083;-81
2023/03/25 03:25:16;;;;;;;4.50;4.07;;;5.60;99.90;4.70;98809;;;;578249;244;24049;-80
2023/03/25 03:27:55;;;;;;;6.37;4.93;;;5.60;99.90;4.70;98804;;;;561137;248;24058;-82
2023/03/25 03:30:31;;;;;;;6.80;3.67;;;5.50;99.90;4.70;98802;;;;576260;244;24039;-80
2023/03/25 03:33:00;;;;;;;7.27;3.57;;;5.50;99.90;4.70;98804;;;;567322;248;24126;-81
2023/03/25 03:35:30;;;;;;;12.33;4.77;;;5.50;99.90;4.70;98804;;;;577316;244;24031;-80
2023/03/25 03:37:58;;;;;;;6.77;3.80;;;5.50;99.90;4.70;98805;;;;567720;245;24056;-81
2023/03/25 03:40:26;;;;;;;4.73;3.70;;;5.60;99.90;4.70;98801;;;;576470;244;24017;-80
2023/03/25 03:43:02;;;;;;;4.50;3.83;;;5.60;99.90;4.70;98794;;;;566557;248;24113;-80
2023/03/25 03:45:36;;;;;;;5.27;4.07;;;5.50;99.90;4.70;98797;;;;578670;244;24041;-81
2023/03/25 03:48:06;;;;;;;4.83;3.43;;;5.50;99.90;4.70;98801;;;;567560;248;24103;-80
2023/03/25 03:50:32;;;;;;;5.87;4.47;;;5.50;99.90;4.60;98797;;;;578495;244;24056;-81
2023/03/25 03:53:06;;;;;;;6.27;4.63;;;5.50;99.90;4.60;98799;;;;566600;248;24124;-82
2023/03/25 03:55:43;;;;;;;5.37;3.87;;;5.50;99.90;4.60;98794;;;;573753;244;24030;-82
2023/03/25 03:58:21;;;;;;;6.40;4.47;;;5.40;99.90;4.50;98795;;;;567370;248;24173;-82
2023/03/25 04:00:50;;;;;;;6.10;4.40;;;5.40;99.90;4.50;98788;;;;567974;247;24086;-81
2023/03/25 04:03:23;;;;;;;5.03;3.63;;;5.40;99.90;4.50;98795;;;;568965;248;24058;-81
2023/03/25 04:05:50;;;;;;;5.83;4.57;;;5.40;99.90;4.40;98795;;;;577000;244;24069;-81
2023/03/25 04:08:25;;;;;;;7.43;4.10;;;5.30;99.90;4.40;98792;;;;566678;248;24140;-82
2023/03/25 04:10:57;;;;;;;5.30;3.93;;;5.30;99.90;4.30;98803;;;;578501;244;24061;-81
2023/03/25 04:13:23;;;;;;;8.47;4.10;;;5.20;99.90;4.30;98791;;;;568280;245;24111;-83
2023/03/25 04:15:51;;;;;;;7.67;4.30;;;5.20;99.90;4.30;98798;;;;579047;244;24038;-83
2023/03/25 04:18:22;;;;;;;7.63;4.07;;;5.10;99.90;4.20;98802;;;;568311;245;24201;-81
2023/03/25 04:20:48;;;;;;;8.83;4.07;;;5.10;99.90;4.20;98783;;;;578706;244;24021;-81
2023/03/25 04:23:15;;;;;;;7.57;3.97;;;5.00;99.90;4.20;98786;;;;568129;245;24083;-81
2023/03/25 04:26:07;;;;;;;8.63;4.20;;;5.00;99.90;4.10;98796;;;;579057;244;24074;-80
2023/03/25 04:28:35;;;;;;;9.07;4.67;;;5.00;99.90;4.00;98793;;;;559903;252;24115;-78
2023/03/25 04:31:05;;;;;;;6.10;3.80;;;4.90;99.90;4.00;98797;;;;565308;248;25099;-78
2023/03/25 04:33:31;;;;;;;4.43;3.67;;;4.90;99.90;3.90;98801;;;;579097;244;24047;-79
2023/03/25 04:36:00;;;;;;;10.10;4.97;;;4.80;99.90;3.90;98806;;;;568153;248;24046;-78
2023/03/25 04:38:27;;;;;;;15.30;7.87;;;4.80;99.90;3.80;98798;;;;567919;248;24133;-84
2023/03/25 04:40:55;;;;;;;10.93;6.10;;;4.70;99.90;3.80;98804;;;;567880;248;24067;-78
2023/03/25 04:43:23;;;;;;;8.50;5.27;;;4.70;99.90;3.80;98801;;;;567916;248;24151;-79
2023/03/25 04:45:53;;;;;;;8.07;5.97;;;4.70;99.90;3.80;98814;;;;578427;244;24048;-82
2023/03/25 04:48:23;;;;;;;7.00;6.33;;;4.70;99.90;3.80;98817;;;;568272;245;24055;-81
2023/03/25 04:50:54;;;;;;;7.87;6.50;;;4.70;99.90;3.70;98810;;;;578442;244;24080;-80
2023/03/25 04:53:21;;;;;;;10.93;6.23;;;4.60;99.90;3.80;98807;;;;568222;246;24070;-80
2023/03/25 04:55:50;;;;;;;11.67;6.70;;;4.60;99.90;3.80;98814;;;;568092;247;24062;-79
2023/03/25 04:58:18;;;;;;;8.93;6.97;;;4.70;99.90;3.80;98812;;;;567883;245;24118;-80
2023/03/25 05:00:46;;;;;;;8.50;6.43;;;4.70;99.90;3.90;98821;;;;578173;242;24124;-81
2023/03/25 05:03:14;;;;;;;7.83;6.37;;;4.80;99.90;3.90;98819;;;;566477;248;24081;-78
2023/03/25 05:05:42;;;;;;;7.80;6.43;;;4.80;99.90;4.00;98810;;;;578429;244;24008;-80
2023/03/25 05:08:10;;;;;;;9.87;7.07;;;4.90;99.90;4.00;98812;;;;567791;248;24061;-79
2023/03/25 05:10:39;;;;;;;7.30;5.63;;;4.90;99.90;4.10;98808;;;;578420;244;24032;-78
2023/03/25 05:13:11;;;;;;;10.47;6.10;;;5.00;99.90;4.20;98818;;;;568726;248;24062;-79
2023/03/25 05:15:38;;;;;;;9.53;5.07;;;5.00;99.90;4.30;98819;;;;567165;248;24086;-79
2023/03/25 05:18:03;;;;;;;6.33;4.17;;;5.10;99.90;4.40;98816;;;;579216;244;24049;-79
2023/03/25 05:20:33;;;;;;;9.60;5.40;;;5.20;99.90;4.50;98821;;;;568620;248;24106;-82
2023/03/25 05:22:58;;;;;;;6.37;4.60;;;5.30;99.90;4.60;98836;;;;579050;244;24013;-81
2023/03/25 05:25:27;;;;;;;5.97;4.20;;;5.40;99.90;4.70;98827;;;;568305;248;24042;-80
2023/03/25 05:27:54;;;;;;;7.37;3.50;;;5.50;99.90;4.70;98826;;;;578832;244;24156;-80
2023/03/25 05:30:26;;;;;;;5.87;3.63;;;5.60;99.90;4.80;98830;;;;568431;248;24069;-83
2023/03/25 05:32:52;;;;;;;12.87;4.27;;;5.70;99.90;4.90;98827;;;;564044;248;24065;-82
2023/03/25 05:35:19;;;;;;;4.80;3.40;;;5.70;99.90;5.00;98838;;;;568277;248;24077;-81
2023/03/25 05:37:49;;;;;;;5.60;4.43;;;5.80;99.90;5.10;98835;;;;578507;244;24056;-80
2023/03/25 05:40:14;;;;;;;3.80;3.40;;;5.90;99.90;6.20;98848;;;;568260;247;24122;-79
2023/03/25 05:42:45;;;;;;;7.77;5.37;;;6.70;99.90;8.60;98855;;;;578727;244;24010;-82
2023/03/25 05:45:14;;;;;;;6.13;4.40;;;8.70;99.90;10.50;98863;;;;567811;248;24050;-82
2023/03/25 05:47:38;;;;;;;5.17;4.67;;;10.70;99.90;12.10;98881;;;;567915;247;24096;-80
2023/03/25 05:50:09;;;;;;;6.63;4.87;;;12.30;99.90;13.40;98884;;;;578758;244;24061;-82
2023/03/25 05:52:35;;;;;;;4.40;3.77;;;13.70;99.90;14.80;98889;;;;567799;247;24084;-81
2023/03/25 05:55:02;;;;;;;3.20;3.00;;;15.10;99.90;16.00;98898;;;;587689;237;24013;-83
2023/03/25 05:57:29;;;;;;;3.93;2.93;;;16.30;99.90;17.20;98901;;;;568127;248;24094;-80
2023/03/25 05:59:58;;;;;;;2.80;2.53;;;17.60;99.90;18.50;98906;;;;578496;244;24003;-78
2023/03/25 06:02:25;;;;;;;2.83;2.50;;;18.90;99.90;19.30;98916;;;;568149;248;24073;-81
2023/03/25 06:04:54;;;;;;;5.10;2.70;;;19.90;99.90;19.80;98908;;;;578803;244;24091;-81
2023/03/25 06:07:21;;;;;;;2.93;2.33;;;20.60;99.90;20.70;98904;;;;568049;248;24072;-81
2023/03/25 06:09:53;;;;;;;5.47;3.00;;;21.30;99.90;21.40;98907;;;;578655;243;24015;-82
2023/03/25 06:12:18;;;;;;;4.70;3.53;;;22.10;99.90;22.20;98902;;;;566445;248;24075;-79
2023/03/25 06:14:50;;;;;;;6.27;3.50;;;23.20;95.40;22.60;98903;;;;578604;242;24067;-78
2023/03/25 06:17:19;;;;;;;4.27;3.07;;;23.20;95.30;23.20;98900;;;;567795;247;24088;-78
2023/03/25 06:19:43;;;;;;;4.77;3.60;;;24.40;85.70;23.90;98905;;;;578277;244;23115;-79
2023/03/25 06:22:11;;;;;;;4.03;3.63;;;24.40;85.70;24.30;98898;;;;568165;248;23086;-78
2023/03/25 06:24:40;;;;;;;5.13;2.90;;;24.90;84.00;24.90;98896;;;;579706;237;24039;-81
2023/03/25 06:27:07;;;;;;;3.57;3.27;;;25.50;80.90;25.60;98902;;;;569206;246;24070;-78
2023/03/25 06:29:40;;;;;;;3.73;3.07;;;26.70;73.40;26.10;98896;;;;579572;244;23052;-77
2023/03/25 06:32:09;;;;;;;3.70;2.90;;;26.60;73.30;26.80;98896;;;;568920;247;24185;-78
2023/03/25 06:34:34;;;;;;;3.37;3.00;;;27.20;68.90;27.30;98898;;;;579033;244;23088;-81
2023/03/25 06:37:02;;;;;;;4.80;3.20;;;27.80;65.80;27.80;98900;;;;568632;248;24110;-79
2023/03/25 06:39:33;;;;;;;7.15;3.60;;;28.30;63.30;28.20;98909;;;;579397;242;23020;-77
2023/03/25 06:42:01;;;;;;;5.97;3.12;;;28.70;60.40;28.80;98910;;;;568638;248;23147;-78
2023/03/25 06:44:33;;;;;;;4.22;3.45;;;29.60;55.50;29.20;98910;;;;573952;244;34817;-79
2023/03/25 06:47:01;;;;;;;6.18;3.12;;;29.90;55.00;29.40;98909;;;;567998;248;23066;-78
2023/03/25 06:49:26;;;;;;;2.72;2.53;;;29.90;55.00;29.60;98908;;;;578418;244;23065;-79
2023/03/25 06:51:54;;;;;;;3.05;2.75;;;30.10;54.70;30.10;98908;;;;568064;248;23065;-79
2023/03/25 06:54:22;;;;;;;2.50;2.28;;;30.50;53.30;30.40;98915;;;;578555;244;23009;-80
2023/03/25 06:56:50;;;;;;;2.70;2.10;;;30.80;50.90;30.50;98914;;;;568085;248;24075;-78
2023/03/25 06:59:18;;;;;;;2.47;2.08;;;30.80;50.90;30.40;98926;;;;578434;244;23315;-81
2023/03/25 07:01:46;;;;;;;2.83;2.05;;;30.80;50.70;30.50;98932;;;;567698;245;23099;-79
2023/03/25 07:04:14;;;;;;;5.10;2.53;;;30.90;50.70;30.40;98934;;;;578902;244;23081;-80
2023/03/25 07:06:42;;;;;;;2.60;2.10;;;30.90;50.40;30.80;98931;;;;568130;248;23072;-82
2023/03/25 07:09:10;;;;;;;2.50;2.30;;;31.00;50.30;31.40;98941;;;;578797;244;23026;-81
2023/03/25 07:11:38;;;;;;;2.42;2.17;;;31.60;49.60;31.60;98939;;;;568107;248;23062;-78
2023/03/25 07:14:06;;;;;;;2.50;2.30;;;31.90;48.90;32.20;98944;;;;568146;248;24089;-80
2023/03/25 07:16:34;;;;;;;3.33;2.42;;;32.40;47.90;32.70;98942;;;;568202;247;23066;-78
2023/03/25 07:19:02;;;;;;;2.40;2.20;;;32.90;48.10;32.70;98944;;;;578717;244;23052;-79
2023/03/25 07:21:29;;;;;;;2.60;2.40;;;33.10;46.70;32.30;98940;;;;568176;248;24142;-78
2023/03/25 07:23:57;;;;;;;3.47;2.03;;;32.80;47.60;31.80;98943;;;;578784;244;23057;-79
2023/03/25 07:26:25;;;;;;;5.65;2.30;;;32.70;47.10;29.70;98942;;;;568112;248;24040;-80
2023/03/25 07:28:53;;;;;;;3.00;2.47;;;31.30;47.40;27.20;98942;;;;578665;243;23096;-82
2023/03/25 07:31:22;;;;;;;3.72;3.00;;;28.00;51.80;27.00;98938;;;;568352;248;23101;-79
2023/03/25 07:33:50;;;;;;;4.12;3.55;;;27.90;51.70;28.30;98941;;;;578816;244;23077;-79
2023/03/25 07:36:20;;;;;;;5.85;2.75;;;28.40;51.90;29.40;98940;;;;569063;248;23091;-80
2023/03/25 07:38:46;;;;;;;5.62;2.47;;;29.40;51.10;30.20;98936;;;;579386;244;23037;-79
2023/03/25 07:41:14;;;;;;;2.25;2.03;;;31.00;49.60;31.10;98937;;;;568932;248;23084;-81
2023/03/25 07:43:44;;;;;;;2.83;2.15;;;32.30;48.10;32.60;98945;;;;579429;243;23047;-79
2023/03/25 07:46:11;;;;;;;3.55;2.35;;;32.30;48.00;33.50;98939;;;;568599;245;23100;-81
2023/03/25 07:48:40;;;;;;;3.55;2.67;;;33.50;46.50;33.60;98943;;;;579262;244;23024;-82
2023/03/25 07:51:07;;;;;;;2.33;2.00;;;33.90;45.80;33.90;98946;;;;577020;246;24063;-81
2023/03/25 07:53:37;;;;;;;3.50;2.35;;;34.20;45.20;33.80;98936;;;;568217;244;23065;-80
2023/03/25 07:56:03;;;;;;;3.92;2.58;;;34.30;44.70;33.40;98929;;;;583553;244;23028;-80
2023/03/25 07:58:30;;;;;;;5.85;2.80;;;34.00;44.10;32.30;98941;;;;568043;248;23077;-79
2023/03/25 08:00:58;;;;;;;2.78;2.30;;;33.30;44.90;32.00;98933;;;;578539;244;23076;-79
2023/03/25 08:03:27;;;;;;;3.22;2.50;;;32.70;45.60;32.30;98929;;;;568150;248;23097;-79
2023/03/25 08:05:55;;;;;;;4.60;2.28;;;32.90;45.80;32.70;98926;;;;578907;242;23146;-80
2023/03/25 08:08:23;;;;;;;3.00;2.15;;;32.90;45.80;33.60;98927;;;;568422;248;23061;-79
2023/03/25 08:10:54;;;;;;;5.80;2.60;;;33.80;45.10;34.40;98930;;;;579039;241;23031;-80
2023/03/25 08:13:19;;;;;;;2.40;2.10;;;34.60;43.90;34.80;98933;;;;566716;248;24126;-79
2023/03/25 08:15:47;;;;;;;2.72;2.50;;;35.20;43.10;34.70;98935;;;;578730;244;23027;-84
2023/03/25 08:18:18;;;;;;;4.37;2.62;;;35.20;42.90;34.50;98934;;;;568177;245;23093;-82
2023/03/25 08:20:43;;;;;;;4.28;2.62;;;34.80;43.40;33.90;98933;;;;577821;244;23085;-79
2023/03/25 08:23:11;;;;;;;6.00;2.42;;;34.70;42.70;33.00;98932;;;;568071;248;23049;-81
2023/03/25 08:25:42;;;;;;;3.33;2.47;;;34.10;43.30;32.10;98927;;;;578736;244;23066;-78
2023/03/25 08:28:12;;;;;;;2.92;2.20;;;33.30;44.10;31.50;98927;;;;568149;248;23058;-79
2023/03/25 08:30:37;;;;;;;7.90;3.17;;;32.60;45.10;30.90;98926;;;;578466;242;23088;-81
2023/03/25 08:33:06;;;;;;;3.17;2.58;;;31.20;46.60;30.00;98924;;;;568150;248;24066;-79
2023/03/25 08:35:37;;;;;;;3.62;2.50;;;31.20;46.50;29.40;98927;;;;578669;241;23055;-80
2023/03/25 08:38:05;;;;;;;5.05;2.65;;;30.50;47.40;29.00;98927;;;;568041;248;23095;-80
2023/03/25 08:40:34;;;;;;;2.55;2.30;;;29.70;48.70;28.80;98924;;;;578664;244;23063;-78
2023/03/25 08:43:04;;;;;;;4.87;2.30;;;29.70;48.70;28.60;98930;;;;567980;248;24142;-80
2023/03/25 08:45:36;;;;;;;6.47;2.70;;;29.40;48.90;28.90;98930;;;;578793;244;24072;-82
2023/03/25 08:48:00;;;;;;;3.90;2.47;;;29.50;49.20;28.30;98931;;;;568857;247;24109;-79
2023/03/25 08:50:28;;;;;;;2.83;2.40;;;29.20;49.30;27.30;98933;;;;579498;242;23034;-77
2023/03/25 08:52:57;;;;;;;3.17;2.93;;;28.50;49.90;26.60;98932;;;;568536;248;23053;-78
2023/03/25 08:55:24;;;;;;;4.37;3.00;;;26.90;51.80;25.80;98927;;;;568506;248;23068;-78
2023/03/25 08:57:52;;;;;;;3.37;2.60;;;26.80;51.70;24.80;98930;;;;578840;244;23115;-81
2023/03/25 09:00:23;;;;;;;2.70;2.50;;;25.90;53.10;23.80;98931;;;;568632;248;24063;-81
2023/03/25 09:02:48;;;;;;;4.47;2.90;;;24.90;54.40;23.00;98929;;;;578819;244;24040;-79
2023/03/25 09:05:17;;;;;;;5.00;2.87;;;23.20;57.80;22.30;98919;;;;568240;248;23082;-78
2023/03/25 09:07:46;;;;;;;3.00;2.33;;;22.40;59.20;21.70;98922;;;;578976;242;24057;-81
2023/03/25 09:10:13;;;;;;;4.27;2.50;;;22.30;59.10;21.00;98920;;;;568397;245;24082;-79
2023/03/25 09:12:41;;;;;;;4.73;2.63;;;21.70;60.30;20.30;98925;;;;579083;244;24016;-78
2023/03/25 09:15:10;;;;;;;5.07;2.53;;;21.00;62.40;19.90;98912;;;;568334;247;24080;-78
2023/03/25 09:17:37;;;;;;;5.10;2.83;;;20.50;64.30;19.50;98909;;;;578767;244;24042;-79
2023/03/25 09:20:09;;;;;;;5.20;2.97;;;20.10;66.00;19.20;98907;;;;568257;248;24052;-78
2023/03/25 09:22:33;;;;;;;2.63;2.40;;;19.70;67.80;18.90;98911;;;;567794;248;24107;-78
2023/03/25 09:25:02;;;;;;;3.60;2.30;;;19.10;70.10;18.50;98907;;;;578592;244;23062;-78
2023/03/25 09:27:30;;;;;;;8.60;2.80;;;19.00;70.00;18.20;98906;;;;568032;248;23089;-79
2023/03/25 09:29:58;;;;;;;6.13;2.90;;;18.80;71.80;18.30;98900;;;;578666;244;24061;-78
2023/03/25 09:32:26;;;;;;;3.10;2.90;;;18.70;73.30;18.50;98901;;;;568100;248;24058;-77
2023/03/25 09:34:53;;;;;;;3.17;2.37;;;18.90;73.70;18.60;98908;;;;578751;241;23049;-78
2023/03/25 09:37:21;;;;;;;6.90;3.07;;;19.00;74.10;18.80;98904;;;;568061;248;24112;-78
2023/03/25 09:39:49;;;;;;;8.70;4.00;;;19.20;74.30;18.80;98905;;;;578605;242;23036;-78
2023/03/25 09:42:47;;;;;;;7.07;2.73;;;19.30;74.30;18.50;98908;;;;568081;248;24088;-80
2023/03/25 09:45:40;;;;;;;9.33;2.90;;;19.10;74.10;18.40;98902;;;;578349;244;24067;-77
2023/03/25 09:48:23;;;;;;;7.77;3.60;;;18.90;76.70;18.40;98899;;;;567236;248;24162;-79
2023/03/25 09:50:51;;;;;;;5.83;2.80;;;18.90;76.60;18.30;98901;;;;578349;244;24048;-78
2023/03/25 09:53:19;;;;;;;3.37;2.43;;;18.80;78.60;18.20;98884;;;;567672;248;24118;-82
2023/03/25 09:55:47;;;;;;;5.57;2.50;;;18.70;77.80;18.00;98891;;;;577380;244;24055;-80
2023/03/25 09:58:22;;;;;;;7.80;3.03;;;18.60;78.10;17.90;98891;;;;567787;246;24087;-80
2023/03/25 10:00:58;;;;;;;4.03;2.83;;;18.50;79.20;17.90;98886;;;;574902;244;34808;-78
2023/03/25 10:04:06;;;;;;;3.92;2.80;;;18.40;80.30;18.30;98891;;;;564018;245;35114;-79
2023/03/25 10:06:34;;;;;;;10.98;3.15;;;18.70;80.30;18.80;98888;;;;574507;244;45685;-80
2023/03/25 10:09:08;;;;;;;3.40;2.70;;;19.30;79.30;19.20;98889;;;;567922;248;24094;-78
2023/03/25 10:12:00;;;;;;;3.73;2.23;;;20.50;76.10;20.10;98885;;;;567833;247;24119;-81
2023/03/25 10:14:55;;;;;;;5.73;2.43;;;20.50;76.10;20.90;98875;;;;568016;247;23116;-79
2023/03/25 10:17:30;;;;;;;4.43;2.27;;;22.80;70.10;22.10;98876;;;;581648;246;24066;-80
2023/03/25 10:20:06;;;;;;;4.50;2.33;;;22.70;70.00;22.80;98877;;;;578822;243;24085;-78
2023/03/25 10:22:36;;;;;;;4.10;1.97;;;23.50;67.40;23.00;98880;;;;567880;248;24044;-79
2023/03/25 10:25:04;;;;;;;10.90;3.47;;;23.90;63.70;22.70;98867;;;;578364;244;25142;-78
2023/03/25 10:27:35;;;;;;;3.60;2.30;;;23.70;64.00;22.30;98877;;;;568200;244;24075;-78
2023/03/25 10:30:10;;;;;;;2.83;2.07;;;23.30;64.50;21.80;98871;;;;578275;244;24032;-78
2023/03/25 10:32:40;;;;;;;13.03;2.30;;;22.80;65.10;21.30;98863;;;;567857;248;24059;-77
2023/03/25 10:35:17;;;;;;;7.60;2.73;;;22.20;66.30;20.90;98861;;;;578234;244;24070;-78
2023/03/25 10:37:48;;;;;;;4.77;2.20;;;21.20;68.30;20.30;98849;;;;577233;244;26258;-77
2023/03/25 10:40:25;;;;;;;2.40;2.00;;;21.10;68.20;19.50;98844;;;;567394;248;24055;-77
2023/03/25 10:43:15;;;;;;;3.57;1.93;;;20.40;70.30;18.80;98847;;;;578120;244;24012;-80
2023/03/25 10:45:45;;;;;;;3.90;2.03;;;19.60;71.50;18.00;98849;;;;567873;248;24078;-78
2023/03/25 10:48:19;;;;;;;15.50;3.60;;;18.80;73.90;17.40;98852;;;;578202;244;24032;-77
2023/03/25 10:50:44;;;;;;;6.97;1.53;;;18.20;76.10;16.90;98879;;;;563098;248;24052;-77
2023/03/25 10:53:24;;;;;;;6.43;1.77;;;17.60;78.90;15.70;98902;;;;578797;244;26228;-78
2023/03/25 10:55:58;;;;;;;5.33;1.30;;;16.70;89.40;14.50;98908;;;;568022;248;24120;-77
2023/03/25 10:58:28;;;;;;;9.43;1.03;;;15.50;99.90;13.30;98896;;;;578380;242;24073;-79
2023/03/25 11:00:54;;;;;;;5.50;1.50;;;14.30;99.90;12.30;98893;;;;567919;248;25101;-80
2023/03/25 11:03:24;;;;;;;1.43;1.30;;;13.20;99.90;11.50;98887;;;;567685;248;24117;-81
2023/03/25 11:05:53;;;;;;;2.20;1.47;;;12.30;99.90;11.00;98888;;;;568012;247;24092;-78
2023/03/25 11:08:24;;;;;;;1.93;1.33;;;11.60;99.90;10.50;98892;;;;578731;244;24086;-81
2023/03/25 11:10:55;;;;;;;2.03;1.57;;;11.10;99.90;10.20;98873;;;;568562;246;26322;-80
2023/03/25 11:13:21;;;;;;;3.33;1.77;;;10.70;99.90;10.00;98866;;;;579306;244;24021;-80
2023/03/25 11:15:50;;;;;;;1.83;1.70;;;10.50;99.90;10.00;98873;;;;568434;246;24154;-80
2023/03/25 11:18:21;;;;;;;5.00;1.83;;;10.40;99.90;10.20;98863;;;;578888;244;24069;-78
2023/03/25 11:20:51;;;;;;;5.57;1.80;;;10.60;99.90;10.50;98861;;;;567014;245;24130;-80
2023/03/25 11:23:19;;;;;;;4.93;2.40;;;10.90;99.90;10.80;98860;;;;578163;244;24044;-80
2023/03/25 11:25:47;;;;;;;16.03;2.77;;;11.30;99.90;11.10;98851;;;;568917;247;24057;-82
2023/03/25 11:28:18;;;;;;;5.77;2.07;;;11.60;99.90;11.40;98847;;;;578839;242;24076;-80
2023/03/25 11:31:19;;;;;;;1.90;1.80;;;11.90;99.90;11.70;98833;;;;567856;247;24059;-79
2023/03/25 11:33:47;;;;;;;3.03;1.90;;;12.30;99.90;12.00;98841;;;;579144;237;24051;-79
2023/03/25 11:36:27;;;;;;;1.83;1.73;;;12.60;99.90;12.10;98838;;;;561343;248;24065;-79
2023/03/25 11:39:03;;;;;;;2.70;1.70;;;12.80;99.90;12.30;98819;;;;568165;248;24049;-79
2023/03/25 11:41:32;;;;;;;4.37;1.40;;;13.00;99.90;12.60;98824;;;;578594;244;24039;-76